sensor_id;sensor_type;location;lat;lon;timestamp;temperature;humidity
27376;DHT22;14844;51.302;6.354;2022-12-05T00:01:38;3.30;99.90
27376;DHT22;14844;51.302;6.354;2022-12-05T00:04:10;3.30;99.90
27376;DHT22;14844;51.302;6.354;2022-12-05T00:06:37;3.20;99.90
27376;DHT22;14844;51.302;6.354;2022-12-05T00:09:04;3.20;99.90
27376;DHT22;14844;51.302;6.354;2022-12-05T00:11:33;3.20;99.90
27376;DHT22;14844;51.302;6.354;2022-12-05T00:14:02;3.20;99.90
27376;DHT22;14844;51.302;6.354;2022-12-05T00:16:30;3.20;99.90
27376;DHT22;14844;51.302;6.354;2022-12-05T00:18:58;3.20;99.90
27376;DHT22;14844;51.302;6.354;2022-12-05T00:21:25;3.20;99.90
27376;DHT22;14844;51.302;6.354;2022-12-05T00:23:52;3.20;99.90
27376;DHT22;14844;51.302;6.354;2022-12-05T00:26:19;3.20;99.90
27376;DHT22;14844;51.302;6.354;2022-12-05T00:28:45;3.20;99.90
27376;DHT22;14844;51.302;6.354;2022-12-05T00:31:14;3.20;99.90
27376;DHT22;14844;51.302;6.354;2022-12-05T00:33:43;3.20;99.90
27376;DHT22;14844;51.302;6.354;2022-12-05T00:36:11;3.20;99.90
27376;DHT22;14844;51.302;6.354;2022-12-05T00:38:38;3.20;99.90
27376;DHT22;14844;51.302;6.354;2022-12-05T00:41:05;3.20;99.90
27376;DHT22;14844;51.302;6.354;2022-12-05T00:43:31;3.20;99.90
27376;DHT22;14844;51.302;6.354;2022-12-05T00:46:05;3.20;99.90
27376;DHT22;14844;51.302;6.354;2022-12-05T00:48:31;3.20;99.90
27376;DHT22;14844;51.302;6.354;2022-12-05T00:51:09;3.20;99.90
27376;DHT22;14844;51.302;6.354;2022-12-05T00:53:35;3.30;99.90
27376;DHT22;14844;51.302;6.354;2022-12-05T00:56:03;3.30;99.90
27376;DHT22;14844;51.302;6.354;2022-12-05T00:58:30;3.30;99.90
27376;DHT22;14844;51.302;6.354;2022-12-05T01:00:55;3.30;99.90
27376;DHT22;14844;51.302;6.354;2022-12-05T01:03:21;3.30;99.90
27376;DHT22;14844;51.302;6.354;2022-12-05T01:05:47;3.30;99.90
27376;DHT22;14844;51.302;6.354;2022-12-05T01:08:13;3.30;99.90
27376;DHT22;14844;51.302;6.354;2022-12-05T01:10:39;3.30;99.90
27376;DHT22;14844;51.302;6.354;2022-12-05T01:13:04;3.30;99.90
27376;DHT22;14844;51.302;6.354;2022-12-05T01:15:30;3.30;99.90
27376;DHT22;14844;51.302;6.354;2022-12-05T01:17:55;3.30;99.90
27376;DHT22;14844;51.302;6.354;2022-12-05T01:20:21;3.30;99.90
27376;DHT22;14844;51.302;6.354;2022-12-05T01:22:46;3.30;99.90
27376;DHT22;14844;51.302;6.354;2022-12-05T01:25:12;3.30;99.90
27376;DHT22;14844;51.302;6.354;2022-12-05T01:27:37;3.30;99.90
27376;DHT22;14844;51.302;6.354;2022-12-05T01:30:03;3.30;99.90
27376;DHT22;14844;51.302;6.354;2022-12-05T01:32:29;3.30;99.90
27376;DHT22;14844;51.302;6.354;2022-12-05T01:34:55;3.30;99.90
27376;DHT22;14844;51.302;6.354;2022-12-05T01:37:20;3.20;99.90
27376;DHT22;14844;51.302;6.354;2022-12-05T01:39:47;3.30;99.90
27376;DHT22;14844;51.302;6.354;2022-12-05T01:42:13;3.30;99.90
27376;DHT22;14844;51.302;6.354;2022-12-05T01:47:07;3.30;99.90
27376;DHT22;14844;51.302;6.354;2022-12-05T01:49:36;3.30;99.90
27376;DHT22;14844;51.302;6.354;2022-12-05T01:52:19;3.30;99.90
27376;DHT22;14844;51.302;6.354;2022-12-05T01:54:48;3.40;99.90
27376;DHT22;14844;51.302;6.354;2022-12-05T01:57:15;3.30;99.90
27376;DHT22;14844;51.302;6.354;2022-12-05T01:59:44;3.30;99.90
27376;DHT22;14844;51.302;6.354;2022-12-05T02:02:11;3.30;99.90
27376;DHT22;14844;51.302;6.354;2022-12-05T02:04:45;3.40;99.90
27376;DHT22;14844;51.302;6.354;2022-12-05T02:07:12;3.40;99.90
27376;DHT22;14844;51.302;6.354;2022-12-05T02:09:38;3.50;99.90
27376;DHT22;14844;51.302;6.354;2022-12-05T02:12:03;3.50;99.90
27376;DHT22;14844;51.302;6.354;2022-12-05T02:17:21;3.50;99.90
27376;DHT22;14844;51.302;6.354;2022-12-05T02:22:58;3.60;99.90
27376;DHT22;14844;51.302;6.354;2022-12-05T02:25:56;3.50;99.90
27376;DHT22;14844;51.302;6.354;2022-12-05T02:31:32;3.50;99.90
27376;DHT22;14844;51.302;6.354;2022-12-05T02:34:09;3.50;99.90
27376;DHT22;14844;51.302;6.354;2022-12-05T02:36:46;3.60;99.90
27376;DHT22;14844;51.302;6.354;2022-12-05T02:39:18;3.60;99.90
27376;DHT22;14844;51.302;6.354;2022-12-05T02:42:04;3.60;99.90
27376;DHT22;14844;51.302;6.354;2022-12-05T02:44:51;3.60;99.90
27376;DHT22;14844;51.302;6.354;2022-12-05T02:47:21;3.60;99.90
27376;DHT22;14844;51.302;6.354;2022-12-05T02:49:49;3.70;99.90
27376;DHT22;14844;51.302;6.354;2022-12-05T02:52:16;3.60;99.90
27376;DHT22;14844;51.302;6.354;2022-12-05T02:54:45;3.60;99.90
27376;DHT22;14844;51.302;6.354;2022-12-05T02:57:13;3.60;99.90
27376;DHT22;14844;51.302;6.354;2022-12-05T02:59:39;3.60;99.90
27376;DHT22;14844;51.302;6.354;2022-12-05T03:02:07;3.60;99.90
27376;DHT22;14844;51.302;6.354;2022-12-05T03:04:32;3.60;99.90
27376;DHT22;14844;51.302;6.354;2022-12-05T03:07:07;3.60;99.90
27376;DHT22;14844;51.302;6.354;2022-12-05T03:09:48;3.60;99.90
27376;DHT22;14844;51.302;6.354;2022-12-05T03:12:18;3.60;99.90
27376;DHT22;14844;51.302;6.354;2022-12-05T03:14:48;3.60;99.90
27376;DHT22;14844;51.302;6.354;2022-12-05T03:17:21;3.60;99.90
27376;DHT22;14844;51.302;6.354;2022-12-05T03:20:05;3.60;99.90
27376;DHT22;14844;51.302;6.354;2022-12-05T03:22:39;3.60;99.90
27376;DHT22;14844;51.302;6.354;2022-12-05T03:25:06;3.50;99.90
27376;DHT22;14844;51.302;6.354;2022-12-05T03:27:45;3.60;99.90
27376;DHT22;14844;51.302;6.354;2022-12-05T03:30:15;3.60;99.90
27376;DHT22;14844;51.302;6.354;2022-12-05T03:32:56;3.60;99.90
27376;DHT22;14844;51.302;6.354;2022-12-05T03:38:00;3.50;99.90
27376;DHT22;14844;51.302;6.354;2022-12-05T03:43:41;3.50;99.90
27376;DHT22;14844;51.302;6.354;2022-12-05T03:46:33;3.60;99.90
27376;DHT22;14844;51.302;6.354;2022-12-05T03:51:54;3.50;99.90
27376;DHT22;14844;51.302;6.354;2022-12-05T03:54:26;3.50;99.90
27376;DHT22;14844;51.302;6.354;2022-12-05T03:56:58;3.50;99.90
27376;DHT22;14844;51.302;6.354;2022-12-05T03:59:39;3.50;99.90
27376;DHT22;14844;51.302;6.354;2022-12-05T04:02:12;3.60;99.90
27376;DHT22;14844;51.302;6.354;2022-12-05T04:04:44;3.60;99.90
27376;DHT22;14844;51.302;6.354;2022-12-05T04:07:12;3.60;99.90
27376;DHT22;14844;51.302;6.354;2022-12-05T04:09:44;3.60;99.90
27376;DHT22;14844;51.302;6.354;2022-12-05T04:12:20;3.50;99.90
27376;DHT22;14844;51.302;6.354;2022-12-05T04:14:51;3.50;99.90
27376;DHT22;14844;51.302;6.354;2022-12-05T04:17:52;3.50;99.90
27376;DHT22;14844;51.302;6.354;2022-12-05T04:20:42;3.50;99.90
27376;DHT22;14844;51.302;6.354;2022-12-05T04:23:25;3.50;99.90
27376;DHT22;14844;51.302;6.354;2022-12-05T04:28:47;3.50;99.90
27376;DHT22;14844;51.302;6.354;2022-12-05T04:31:21;3.50;99.90
27376;DHT22;14844;51.302;6.354;2022-12-05T04:33:59;3.50;99.90
27376;DHT22;14844;51.302;6.354;2022-12-05T04:41:47;3.50;99.90
27376;DHT22;14844;51.302;6.354;2022-12-05T04:44:17;3.50;99.90
27376;DHT22;14844;51.302;6.354;2022-12-05T04:46:46;3.50;99.90
27376;DHT22;14844;51.302;6.354;2022-12-05T04:49:19;3.50;99.90
27376;DHT22;14844;51.302;6.354;2022-12-05T04:51:49;3.60;99.90
27376;DHT22;14844;51.302;6.354;2022-12-05T04:54:20;3.60;99.90
27376;DHT22;14844;51.302;6.354;2022-12-05T04:56:50;3.60;99.90
27376;DHT22;14844;51.302;6.354;2022-12-05T04:59:16;3.60;99.90
27376;DHT22;14844;51.302;6.354;2022-12-05T05:01:47;3.60;99.90
27376;DHT22;14844;51.302;6.354;2022-12-05T05:04:21;3.50;99.90
27376;DHT22;14844;51.302;6.354;2022-12-05T05:06:50;3.50;99.90
27376;DHT22;14844;51.302;6.354;2022-12-05T05:09:15;3.50;99.90
27376;DHT22;14844;51.302;6.354;2022-12-05T05:11:41;3.50;99.90
27376;DHT22;14844;51.302;6.354;2022-12-05T05:14:06;3.50;99.90
27376;DHT22;14844;51.302;6.354;2022-12-05T05:16:38;3.50;99.90
27376;DHT22;14844;51.302;6.354;2022-12-05T05:19:05;3.40;99.90
27376;DHT22;14844;51.302;6.354;2022-12-05T05:21:37;3.40;99.90
27376;DHT22;14844;51.302;6.354;2022-12-05T05:24:04;3.30;99.90
27376;DHT22;14844;51.302;6.354;2022-12-05T05:26:33;3.20;99.90
27376;DHT22;14844;51.302;6.354;2022-12-05T05:28:59;3.20;99.90
27376;DHT22;14844;51.302;6.354;2022-12-05T05:31:24;3.20;99.90
27376;DHT22;14844;51.302;6.354;2022-12-05T05:33:52;3.20;99.90
27376;DHT22;14844;51.302;6.354;2022-12-05T05:36:18;3.30;99.90
27376;DHT22;14844;51.302;6.354;2022-12-05T05:38:46;3.30;99.90
27376;DHT22;14844;51.302;6.354;2022-12-05T05:41:14;3.30;99.90
27376;DHT22;14844;51.302;6.354;2022-12-05T05:43:41;3.30;99.90
27376;DHT22;14844;51.302;6.354;2022-12-05T05:46:06;3.30;99.90
27376;DHT22;14844;51.302;6.354;2022-12-05T05:48:32;3.30;99.90
27376;DHT22;14844;51.302;6.354;2022-12-05T05:50:58;3.30;99.90
27376;DHT22;14844;51.302;6.354;2022-12-05T05:53:24;3.40;99.90
27376;DHT22;14844;51.302;6.354;2022-12-05T05:55:49;3.40;99.90
27376;DHT22;14844;51.302;6.354;2022-12-05T05:58:15;3.30;99.90
27376;DHT22;14844;51.302;6.354;2022-12-05T06:00:41;3.40;99.90
27376;DHT22;14844;51.302;6.354;2022-12-05T06:03:07;3.40;99.90
27376;DHT22;14844;51.302;6.354;2022-12-05T06:05:32;3.30;99.90
27376;DHT22;14844;51.302;6.354;2022-12-05T06:07:58;3.40;99.90
27376;DHT22;14844;51.302;6.354;2022-12-05T06:10:23;3.40;99.90
27376;DHT22;14844;51.302;6.354;2022-12-05T06:12:49;3.40;99.90
27376;DHT22;14844;51.302;6.354;2022-12-05T06:15:14;3.30;99.90
27376;DHT22;14844;51.302;6.354;2022-12-05T06:17:40;3.30;99.90
27376;DHT22;14844;51.302;6.354;2022-12-05T06:20:06;3.30;99.90
27376;DHT22;14844;51.302;6.354;2022-12-05T06:22:33;3.30;99.90
27376;DHT22;14844;51.302;6.354;2022-12-05T06:25:00;3.20;99.90
27376;DHT22;14844;51.302;6.354;2022-12-05T06:27:47;3.20;99.90
27376;DHT22;14844;51.302;6.354;2022-12-05T06:30:15;3.10;99.90
27376;DHT22;14844;51.302;6.354;2022-12-05T06:32:44;3.10;99.90
27376;DHT22;14844;51.302;6.354;2022-12-05T06:35:11;3.00;99.90
27376;DHT22;14844;51.302;6.354;2022-12-05T06:37:43;3.10;99.90
27376;DHT22;14844;51.302;6.354;2022-12-05T06:40:11;3.00;99.90
27376;DHT22;14844;51.302;6.354;2022-12-05T06:42:41;3.00;99.90
27376;DHT22;14844;51.302;6.354;2022-12-05T06:45:07;3.00;99.90
27376;DHT22;14844;51.302;6.354;2022-12-05T06:47:33;3.00;99.90
27376;DHT22;14844;51.302;6.354;2022-12-05T06:53:44;3.10;99.90
27376;DHT22;14844;51.302;6.354;2022-12-05T06:56:33;3.10;99.90
27376;DHT22;14844;51.302;6.354;2022-12-05T06:58:59;3.10;99.90
27376;DHT22;14844;51.302;6.354;2022-12-05T07:01:24;3.10;99.90
27376;DHT22;14844;51.302;6.354;2022-12-05T07:04:19;3.10;99.90
27376;DHT22;14844;51.302;6.354;2022-12-05T07:06:48;3.10;99.90
27376;DHT22;14844;51.302;6.354;2022-12-05T07:09:14;3.10;99.90
27376;DHT22;14844;51.302;6.354;2022-12-05T07:11:40;3.00;99.90
27376;DHT22;14844;51.302;6.354;2022-12-05T07:14:06;3.10;99.90
27376;DHT22;14844;51.302;6.354;2022-12-05T07:16:34;3.10;99.90
27376;DHT22;14844;51.302;6.354;2022-12-05T07:18:59;3.00;99.90
27376;DHT22;14844;51.302;6.354;2022-12-05T07:21:25;3.00;99.90
27376;DHT22;14844;51.302;6.354;2022-12-05T07:23:51;3.00;99.90
27376;DHT22;14844;51.302;6.354;2022-12-05T07:26:20;3.00;99.90
27376;DHT22;14844;51.302;6.354;2022-12-05T07:28:47;3.00;99.90
27376;DHT22;14844;51.302;6.354;2022-12-05T07:31:19;3.00;99.90
27376;DHT22;14844;51.302;6.354;2022-12-05T07:33:47;3.00;99.90
27376;DHT22;14844;51.302;6.354;2022-12-05T07:36:18;3.00;99.90
27376;DHT22;14844;51.302;6.354;2022-12-05T07:38:44;3.10;99.90
27376;DHT22;14844;51.302;6.354;2022-12-05T07:41:22;3.10;99.90
27376;DHT22;14844;51.302;6.354;2022-12-05T07:43:50;3.10;99.90
27376;DHT22;14844;51.302;6.354;2022-12-05T07:46:15;3.10;99.90
27376;DHT22;14844;51.302;6.354;2022-12-05T07:48:42;3.10;99.90
27376;DHT22;14844;51.302;6.354;2022-12-05T07:51:08;3.10;99.90
27376;DHT22;14844;51.302;6.354;2022-12-05T07:53:35;3.00;99.90
27376;DHT22;14844;51.302;6.354;2022-12-05T07:56:03;3.00;99.90
27376;DHT22;14844;51.302;6.354;2022-12-05T07:58:29;2.90;99.90
27376;DHT22;14844;51.302;6.354;2022-12-05T08:00:55;2.80;99.90
27376;DHT22;14844;51.302;6.354;2022-12-05T08:03:21;2.80;99.90
27376;DHT22;14844;51.302;6.354;2022-12-05T08:05:46;2.90;99.90
27376;DHT22;14844;51.302;6.354;2022-12-05T08:08:12;2.90;99.90
27376;DHT22;14844;51.302;6.354;2022-12-05T08:10:38;2.80;99.90
27376;DHT22;14844;51.302;6.354;2022-12-05T08:13:03;2.80;99.90
27376;DHT22;14844;51.302;6.354;2022-12-05T08:15:29;2.90;99.90
27376;DHT22;14844;51.302;6.354;2022-12-05T08:17:54;2.90;99.90
27376;DHT22;14844;51.302;6.354;2022-12-05T08:20:20;2.90;99.90
27376;DHT22;14844;51.302;6.354;2022-12-05T08:22:46;2.90;99.90
27376;DHT22;14844;51.302;6.354;2022-12-05T08:25:11;2.80;99.90
27376;DHT22;14844;51.302;6.354;2022-12-05T08:27:37;2.80;99.90
27376;DHT22;14844;51.302;6.354;2022-12-05T08:30:03;2.90;99.90
27376;DHT22;14844;51.302;6.354;2022-12-05T08:32:29;2.90;99.90
27376;DHT22;14844;51.302;6.354;2022-12-05T08:34:54;2.80;99.90
27376;DHT22;14844;51.302;6.354;2022-12-05T08:37:20;2.80;99.90
27376;DHT22;14844;51.302;6.354;2022-12-05T08:39:46;2.70;99.90
27376;DHT22;14844;51.302;6.354;2022-12-05T08:42:12;2.70;99.90
27376;DHT22;14844;51.302;6.354;2022-12-05T08:44:37;2.70;99.90
27376;DHT22;14844;51.302;6.354;2022-12-05T08:47:03;2.60;99.90
27376;DHT22;14844;51.302;6.354;2022-12-05T08:49:28;2.60;99.90
27376;DHT22;14844;51.302;6.354;2022-12-05T08:51:54;2.60;99.90
27376;DHT22;14844;51.302;6.354;2022-12-05T08:54:19;2.60;99.90
27376;DHT22;14844;51.302;6.354;2022-12-05T08:56:45;2.60;99.90
27376;DHT22;14844;51.302;6.354;2022-12-05T08:59:10;2.60;99.90
27376;DHT22;14844;51.302;6.354;2022-12-05T09:01:36;2.60;99.90
27376;DHT22;14844;51.302;6.354;2022-12-05T09:04:04;2.60;99.90
27376;DHT22;14844;51.302;6.354;2022-12-05T09:06:31;2.60;99.90
27376;DHT22;14844;51.302;6.354;2022-12-05T09:08:59;2.60;99.90
27376;DHT22;14844;51.302;6.354;2022-12-05T09:11:27;2.60;99.90
27376;DHT22;14844;51.302;6.354;2022-12-05T09:13:54;2.60;99.90
27376;DHT22;14844;51.302;6.354;2022-12-05T09:16:22;2.60;99.90
27376;DHT22;14844;51.302;6.354;2022-12-05T09:18:49;2.60;99.90
27376;DHT22;14844;51.302;6.354;2022-12-05T09:21:18;2.60;99.90
27376;DHT22;14844;51.302;6.354;2022-12-05T09:23:44;2.60;99.90
27376;DHT22;14844;51.302;6.354;2022-12-05T09:26:13;2.70;99.90
27376;DHT22;14844;51.302;6.354;2022-12-05T09:28:39;2.70;99.90
27376;DHT22;14844;51.302;6.354;2022-12-05T09:31:07;2.70;99.90
27376;DHT22;14844;51.302;6.354;2022-12-05T09:33:35;2.70;99.90
27376;DHT22;14844;51.302;6.354;2022-12-05T09:36:03;2.80;99.90
27376;DHT22;14844;51.302;6.354;2022-12-05T09:38:28;2.80;99.90
27376;DHT22;14844;51.302;6.354;2022-12-05T09:49:50;2.70;99.90
27376;DHT22;14844;51.302;6.354;2022-12-05T09:52:27;2.50;99.90
27376;DHT22;14844;51.302;6.354;2022-12-05T09:54:53;2.60;99.90
27376;DHT22;14844;51.302;6.354;2022-12-05T09:57:26;2.60;99.90
27376;DHT22;14844;51.302;6.354;2022-12-05T09:59:54;2.60;99.90
27376;DHT22;14844;51.302;6.354;2022-12-05T10:02:31;2.50;99.90
27376;DHT22;14844;51.302;6.354;2022-12-05T10:08:05;2.40;99.90
27376;DHT22;14844;51.302;6.354;2022-12-05T10:15:39;2.40;99.90
27376;DHT22;14844;51.302;6.354;2022-12-05T10:18:36;2.50;99.90
27376;DHT22;14844;51.302;6.354;2022-12-05T10:26:04;2.50;99.90
27376;DHT22;14844;51.302;6.354;2022-12-05T10:28:49;2.60;99.90
27376;DHT22;14844;51.302;6.354;2022-12-05T10:31:19;2.50;99.90
27376;DHT22;14844;51.302;6.354;2022-12-05T10:33:50;2.60;99.90
27376;DHT22;14844;51.302;6.354;2022-12-05T10:36:17;2.60;99.90
27376;DHT22;14844;51.302;6.354;2022-12-05T10:38:43;2.70;99.90
27376;DHT22;14844;51.302;6.354;2022-12-05T10:41:12;2.70;99.90
27376;DHT22;14844;51.302;6.354;2022-12-05T10:43:44;2.70;99.90
27376;DHT22;14844;51.302;6.354;2022-12-05T10:46:11;2.70;99.90
27376;DHT22;14844;51.302;6.354;2022-12-05T10:48:39;2.70;99.90
27376;DHT22;14844;51.302;6.354;2022-12-05T10:51:05;2.60;99.90
27376;DHT22;14844;51.302;6.354;2022-12-05T10:53:44;2.50;99.90
27376;DHT22;14844;51.302;6.354;2022-12-05T10:59:00;2.50;99.90
27376;DHT22;14844;51.302;6.354;2022-12-05T11:01:25;2.40;99.90
27376;DHT22;14844;51.302;6.354;2022-12-05T11:03:59;2.40;99.90
27376;DHT22;14844;51.302;6.354;2022-12-05T11:06:27;2.30;99.90
27376;DHT22;14844;51.302;6.354;2022-12-05T11:09:16;2.20;99.90
27376;DHT22;14844;51.302;6.354;2022-12-05T11:12:00;2.10;99.90
27376;DHT22;14844;51.302;6.354;2022-12-05T11:14:27;2.10;99.90
27376;DHT22;14844;51.302;6.354;2022-12-05T11:16:59;1.90;99.90
27376;DHT22;14844;51.302;6.354;2022-12-05T11:19:34;1.90;99.90
27376;DHT22;14844;51.302;6.354;2022-12-05T11:22:00;2.00;99.90
27376;DHT22;14844;51.302;6.354;2022-12-05T11:26:56;1.90;99.90
27376;DHT22;14844;51.302;6.354;2022-12-05T11:29:36;1.90;99.90
27376;DHT22;14844;51.302;6.354;2022-12-05T11:32:04;1.90;99.90
27376;DHT22;14844;51.302;6.354;2022-12-05T11:34:40;1.80;99.90
27376;DHT22;14844;51.302;6.354;2022-12-05T11:37:14;1.80;99.90
27376;DHT22;14844;51.302;6.354;2022-12-05T11:39:42;1.80;99.90
27376;DHT22;14844;51.302;6.354;2022-12-05T11:42:37;1.80;99.90
27376;DHT22;14844;51.302;6.354;2022-12-05T11:45:11;1.80;99.90
27376;DHT22;14844;51.302;6.354;2022-12-05T11:56:51;1.90;99.90
27376;DHT22;14844;51.302;6.354;2022-12-05T11:59:02;1.80;99.90
27376;DHT22;14844;51.302;6.354;2022-12-05T12:02:03;1.80;99.90
27376;DHT22;14844;51.302;6.354;2022-12-05T12:10:25;1.70;99.90
27376;DHT22;14844;51.302;6.354;2022-12-05T12:24:11;1.60;99.90
27376;DHT22;14844;51.302;6.354;2022-12-05T12:31:54;1.60;99.90
27376;DHT22;14844;51.302;6.354;2022-12-05T12:37:12;1.60;99.90
27376;DHT22;14844;51.302;6.354;2022-12-05T12:42:30;1.60;99.90
27376;DHT22;14844;51.302;6.354;2022-12-05T12:50:55;1.80;99.90
27376;DHT22;14844;51.302;6.354;2022-12-05T12:53:53;1.90;99.90
27376;DHT22;14844;51.302;6.354;2022-12-05T12:59:28;2.00;99.90
27376;DHT22;14844;51.302;6.354;2022-12-05T13:02:14;1.90;99.90
27376;DHT22;14844;51.302;6.354;2022-12-05T13:05:06;1.90;99.90
27376;DHT22;14844;51.302;6.354;2022-12-05T13:07:42;2.00;99.90
27376;DHT22;14844;51.302;6.354;2022-12-05T13:10:28;1.90;99.90
27376;DHT22;14844;51.302;6.354;2022-12-05T13:12:57;1.90;99.90
27376;DHT22;14844;51.302;6.354;2022-12-05T13:17:58;1.90;99.90
27376;DHT22;14844;51.302;6.354;2022-12-05T13:20:29;1.90;99.90
27376;DHT22;14844;51.302;6.354;2022-12-05T13:22:56;1.90;99.90
27376;DHT22;14844;51.302;6.354;2022-12-05T13:25:28;1.90;99.90
27376;DHT22;14844;51.302;6.354;2022-12-05T13:30:32;2.00;99.90
27376;DHT22;14844;51.302;6.354;2022-12-05T13:33:03;2.00;99.90
27376;DHT22;14844;51.302;6.354;2022-12-05T13:35:35;2.10;99.90
27376;DHT22;14844;51.302;6.354;2022-12-05T13:38:21;2.20;99.90
27376;DHT22;14844;51.302;6.354;2022-12-05T13:41:07;2.20;99.90
27376;DHT22;14844;51.302;6.354;2022-12-05T13:43:52;2.20;99.90
27376;DHT22;14844;51.302;6.354;2022-12-05T13:46:26;2.10;99.90
27376;DHT22;14844;51.302;6.354;2022-12-05T13:49:02;2.10;99.90
27376;DHT22;14844;51.302;6.354;2022-12-05T13:51:36;2.00;99.90
27376;DHT22;14844;51.302;6.354;2022-12-05T13:54:14;2.00;99.90
27376;DHT22;14844;51.302;6.354;2022-12-05T13:56:52;2.00;99.90
27376;DHT22;14844;51.302;6.354;2022-12-05T14:07:45;1.80;99.90
27376;DHT22;14844;51.302;6.354;2022-12-05T14:15:49;1.80;99.90
27376;DHT22;14844;51.302;6.354;2022-12-05T14:18:28;1.80;99.90
27376;DHT22;14844;51.302;6.354;2022-12-05T14:27:18;2.00;99.90
27376;DHT22;14844;51.302;6.354;2022-12-05T14:32:38;1.80;99.90
27376;DHT22;14844;51.302;6.354;2022-12-05T14:35:16;1.70;99.90
27376;DHT22;14844;51.302;6.354;2022-12-05T14:38:06;1.60;99.90
27376;DHT22;14844;51.302;6.354;2022-12-05T14:40:37;1.60;99.90
27376;DHT22;14844;51.302;6.354;2022-12-05T14:45:32;1.50;99.90
27376;DHT22;14844;51.302;6.354;2022-12-05T14:50:50;1.40;99.90
27376;DHT22;14844;51.302;6.354;2022-12-05T14:56:05;1.40;99.90
27376;DHT22;14844;51.302;6.354;2022-12-05T15:01:39;1.40;99.90
27376;DHT22;14844;51.302;6.354;2022-12-05T15:04:16;1.40;99.90
27376;DHT22;14844;51.302;6.354;2022-12-05T15:06:54;1.40;99.90
27376;DHT22;14844;51.302;6.354;2022-12-05T15:12:01;1.40;99.90
27376;DHT22;14844;51.302;6.354;2022-12-05T15:14:28;1.30;99.90
27376;DHT22;14844;51.302;6.354;2022-12-05T15:16:58;1.40;99.90
27376;DHT22;14844;51.302;6.354;2022-12-05T15:22:16;1.40;99.90
27376;DHT22;14844;51.302;6.354;2022-12-05T15:24:43;1.40;99.90
27376;DHT22;14844;51.302;6.354;2022-12-05T15:27:10;1.40;99.90
27376;DHT22;14844;51.302;6.354;2022-12-05T15:29:37;1.40;99.90
27376;DHT22;14844;51.302;6.354;2022-12-05T15:32:24;1.40;99.90
27376;DHT22;14844;51.302;6.354;2022-12-05T15:35:03;1.40;99.90
27376;DHT22;14844;51.302;6.354;2022-12-05T15:37:38;1.40;99.90
27376;DHT22;14844;51.302;6.354;2022-12-05T15:47:38;1.20;99.90
27376;DHT22;14844;51.302;6.354;2022-12-05T15:50:05;1.20;99.90
27376;DHT22;14844;51.302;6.354;2022-12-05T15:52:53;1.30;99.90
27376;DHT22;14844;51.302;6.354;2022-12-05T15:58:09;1.40;99.90
27376;DHT22;14844;51.302;6.354;2022-12-05T16:00:47;1.30;99.90
27376;DHT22;14844;51.302;6.354;2022-12-05T16:06:06;1.30;99.90
27376;DHT22;14844;51.302;6.354;2022-12-05T16:08:34;1.20;99.90
27376;DHT22;14844;51.302;6.354;2022-12-05T16:11:10;1.20;99.90
27376;DHT22;14844;51.302;6.354;2022-12-05T16:13:44;1.20;99.90
27376;DHT22;14844;51.302;6.354;2022-12-05T16:16:19;1.20;99.90
27376;DHT22;14844;51.302;6.354;2022-12-05T16:18:56;1.30;99.90
27376;DHT22;14844;51.302;6.354;2022-12-05T16:21:30;1.30;99.90
27376;DHT22;14844;51.302;6.354;2022-12-05T16:27:37;1.30;99.90
27376;DHT22;14844;51.302;6.354;2022-12-05T16:30:22;1.30;99.90
27376;DHT22;14844;51.302;6.354;2022-12-05T16:32:49;1.30;99.90
27376;DHT22;14844;51.302;6.354;2022-12-05T16:35:36;1.30;99.90
27376;DHT22;14844;51.302;6.354;2022-12-05T16:38:17;1.30;99.90
27376;DHT22;14844;51.302;6.354;2022-12-05T16:48:37;1.30;99.90
27376;DHT22;14844;51.302;6.354;2022-12-05T16:54:10;1.30;99.90
27376;DHT22;14844;51.302;6.354;2022-12-05T16:56:36;1.20;99.90
27376;DHT22;14844;51.302;6.354;2022-12-05T16:59:05;1.20;99.90
27376;DHT22;14844;51.302;6.354;2022-12-05T17:01:36;1.20;99.90
27376;DHT22;14844;51.302;6.354;2022-12-05T17:04:02;1.30;99.90
27376;DHT22;14844;51.302;6.354;2022-12-05T17:06:27;1.30;99.90
27376;DHT22;14844;51.302;6.354;2022-12-05T17:09:24;1.20;99.90
27376;DHT22;14844;51.302;6.354;2022-12-05T17:11:53;1.20;99.90
27376;DHT22;14844;51.302;6.354;2022-12-05T17:14:21;1.30;99.90
27376;DHT22;14844;51.302;6.354;2022-12-05T17:16:47;1.30;99.90
27376;DHT22;14844;51.302;6.354;2022-12-05T17:19:12;1.30;99.90
27376;DHT22;14844;51.302;6.354;2022-12-05T17:21:39;1.30;99.90
27376;DHT22;14844;51.302;6.354;2022-12-05T17:24:09;1.20;99.90
27376;DHT22;14844;51.302;6.354;2022-12-05T17:26:37;1.30;99.90
27376;DHT22;14844;51.302;6.354;2022-12-05T17:29:03;1.30;99.90
27376;DHT22;14844;51.302;6.354;2022-12-05T17:31:28;1.20;99.90
27376;DHT22;14844;51.302;6.354;2022-12-05T17:33:54;1.30;99.90
27376;DHT22;14844;51.302;6.354;2022-12-05T17:36:20;1.20;99.90
27376;DHT22;14844;51.302;6.354;2022-12-05T17:38:45;1.20;99.90
27376;DHT22;14844;51.302;6.354;2022-12-05T17:41:16;1.30;99.90
27376;DHT22;14844;51.302;6.354;2022-12-05T17:43:43;1.30;99.90
27376;DHT22;14844;51.302;6.354;2022-12-05T17:46:11;1.20;99.90
27376;DHT22;14844;51.302;6.354;2022-12-05T17:48:37;1.20;99.90
27376;DHT22;14844;51.302;6.354;2022-12-05T17:51:02;1.20;99.90
27376;DHT22;14844;51.302;6.354;2022-12-05T17:53:31;1.20;99.90
27376;DHT22;14844;51.302;6.354;2022-12-05T17:55:56;1.20;99.90
27376;DHT22;14844;51.302;6.354;2022-12-05T17:58:22;1.20;99.90
27376;DHT22;14844;51.302;6.354;2022-12-05T18:00:47;1.30;99.90
27376;DHT22;14844;51.302;6.354;2022-12-05T18:03:15;1.30;99.90
27376;DHT22;14844;51.302;6.354;2022-12-05T18:05:41;1.30;99.90
27376;DHT22;14844;51.302;6.354;2022-12-05T18:08:07;1.30;99.90
27376;DHT22;14844;51.302;6.354;2022-12-05T18:10:33;1.40;99.90
27376;DHT22;14844;51.302;6.354;2022-12-05T18:12:58;1.40;99.90
27376;DHT22;14844;51.302;6.354;2022-12-05T18:15:24;1.30;99.90
27376;DHT22;14844;51.302;6.354;2022-12-05T18:17:49;1.30;99.90
27376;DHT22;14844;51.302;6.354;2022-12-05T18:20:15;1.30;99.90
27376;DHT22;14844;51.302;6.354;2022-12-05T18:22:41;1.30;99.90
27376;DHT22;14844;51.302;6.354;2022-12-05T18:25:08;1.30;99.90
27376;DHT22;14844;51.302;6.354;2022-12-05T18:27:36;1.30;99.90
27376;DHT22;14844;51.302;6.354;2022-12-05T18:30:04;1.30;99.90
27376;DHT22;14844;51.302;6.354;2022-12-05T18:36:29;1.40;99.90
27376;DHT22;14844;51.302;6.354;2022-12-05T18:38:55;1.30;99.90
27376;DHT22;14844;51.302;6.354;2022-12-05T18:41:22;1.30;99.90
27376;DHT22;14844;51.302;6.354;2022-12-05T18:43:52;1.30;99.90
27376;DHT22;14844;51.302;6.354;2022-12-05T18:46:18;1.30;99.90
27376;DHT22;14844;51.302;6.354;2022-12-05T18:48:46;1.40;99.90
27376;DHT22;14844;51.302;6.354;2022-12-05T18:51:18;1.40;99.90
27376;DHT22;14844;51.302;6.354;2022-12-05T18:53:45;1.40;99.90
27376;DHT22;14844;51.302;6.354;2022-12-05T18:56:16;1.40;99.90
27376;DHT22;14844;51.302;6.354;2022-12-05T18:58:42;1.40;99.90
27376;DHT22;14844;51.302;6.354;2022-12-05T19:01:10;1.40;99.90
27376;DHT22;14844;51.302;6.354;2022-12-05T19:03:36;1.40;99.90
27376;DHT22;14844;51.302;6.354;2022-12-05T19:06:14;1.30;99.90